sensor_id;sensor_type;location;lat;lon;timestamp;pressure;altitude;pressure_sealevel;temperature;humidity
60820;BME280;46641;48.904;9.126;2023-12-07T00:03:00;98924.97;;;8.91;66.44
60820;BME280;46641;48.904;9.126;2023-12-07T00:07:51;98919.06;;;8.88;66.19
60820;BME280;46641;48.904;9.126;2023-12-07T00:12:41;98917.25;;;8.89;66.53
60820;BME280;46641;48.904;9.126;2023-12-07T00:17:31;98915.72;;;8.86;66.28
60820;BME280;46641;48.904;9.126;2023-12-07T00:22:22;98914.91;;;8.86;66.38
60820;BME280;46641;48.904;9.126;2023-12-07T00:27:14;98923.69;;;8.85;66.64
60820;BME280;46641;48.904;9.126;2023-12-07T00:32:05;98927.13;;;8.85;66.50
60820;BME280;46641;48.904;9.126;2023-12-07T00:36:55;98936.75;;;8.85;66.66
60820;BME280;46641;48.904;9.126;2023-12-07T00:41:45;98935.78;;;8.86;66.39
60820;BME280;46641;48.904;9.126;2023-12-07T00:46:37;98943.63;;;8.86;66.19
60820;BME280;46641;48.904;9.126;2023-12-07T00:51:27;98945.25;;;8.87;65.94
60820;BME280;46641;48.904;9.126;2023-12-07T00:56:18;98942.78;;;8.85;66.35
60820;BME280;46641;48.904;9.126;2023-12-07T01:01:08;98935.78;;;8.86;66.24
60820;BME280;46641;48.904;9.126;2023-12-07T01:05:58;98940.91;;;8.87;66.59
60820;BME280;46641;48.904;9.126;2023-12-07T01:10:48;98943.63;;;8.86;66.67
60820;BME280;46641;48.904;9.126;2023-12-07T01:15:39;98953.22;;;8.85;66.29
60820;BME280;46641;48.904;9.126;2023-12-07T01:20:29;98959.41;;;8.84;66.41
60820;BME280;46641;48.904;9.126;2023-12-07T01:25:19;98962.13;;;8.83;66.86
60820;BME280;46641;48.904;9.126;2023-12-07T01:30:11;98965.56;;;8.83;66.57
60820;BME280;46641;48.904;9.126;2023-12-07T01:35:02;98967.25;;;8.84;66.80
60820;BME280;46641;48.904;9.126;2023-12-07T01:39:52;98976.88;;;8.84;66.22
60820;BME280;46641;48.904;9.126;2023-12-07T01:44:42;98970.78;;;8.83;66.24
60820;BME280;46641;48.904;9.126;2023-12-07T01:49:33;98982.75;;;8.86;66.68
60820;BME280;46641;48.904;9.126;2023-12-07T01:54:24;98975.19;;;8.83;66.57
60820;BME280;46641;48.904;9.126;2023-12-07T01:59:14;98976.97;;;8.82;66.84
60820;BME280;46641;48.904;9.126;2023-12-07T02:04:05;98984.78;;;8.82;66.26
60820;BME280;46641;48.904;9.126;2023-12-07T02:08:55;98982.19;;;8.82;66.35
60820;BME280;46641;48.904;9.126;2023-12-07T02:13:46;98983.16;;;8.81;66.50
60820;BME280;46641;48.904;9.126;2023-12-07T02:18:40;98981.47;;;8.80;66.61
60820;BME280;46641;48.904;9.126;2023-12-07T02:23:35;98979.59;;;8.82;66.35
60820;BME280;46641;48.904;9.126;2023-12-07T02:28:25;98971.66;;;8.84;66.31
60820;BME280;46641;48.904;9.126;2023-12-07T02:33:15;98970.78;;;8.83;66.43
60820;BME280;46641;48.904;9.126;2023-12-07T02:38:07;98969.13;;;8.82;66.18
60820;BME280;46641;48.904;9.126;2023-12-07T02:42:59;98985.75;;;8.81;66.49
60820;BME280;46641;48.904;9.126;2023-12-07T02:47:50;98975.31;;;8.81;66.62
60820;BME280;46641;48.904;9.126;2023-12-07T02:52:40;98971.03;;;8.80;66.45
60820;BME280;46641;48.904;9.126;2023-12-07T02:57:31;98977.09;;;8.81;66.19
60820;BME280;46641;48.904;9.126;2023-12-07T03:02:23;98977.09;;;8.81;66.48
60820;BME280;46641;48.904;9.126;2023-12-07T03:07:13;98973.66;;;8.80;66.41
60820;BME280;46641;48.904;9.126;2023-12-07T03:12:04;98990.25;;;8.79;66.60
60820;BME280;46641;48.904;9.126;2023-12-07T03:16:55;98985.19;;;8.78;66.89
60820;BME280;46641;48.904;9.126;2023-12-07T03:21:45;98986.00;;;8.78;66.64
60820;BME280;46641;48.904;9.126;2023-12-07T03:26:35;98973.22;;;8.75;66.49
60820;BME280;46641;48.904;9.126;2023-12-07T03:31:25;98989.69;;;8.76;66.74
60820;BME280;46641;48.904;9.126;2023-12-07T03:36:16;98988.97;;;8.74;66.94
60820;BME280;46641;48.904;9.126;2023-12-07T03:41:06;98990.75;;;8.73;66.73
60820;BME280;46641;48.904;9.126;2023-12-07T03:45:57;98997.91;;;8.71;66.89
60820;BME280;46641;48.904;9.126;2023-12-07T03:50:47;98999.66;;;8.71;66.77
60820;BME280;46641;48.904;9.126;2023-12-07T03:55:38;98992.06;;;8.68;66.69
60820;BME280;46641;48.904;9.126;2023-12-07T04:00:28;99001.00;;;8.65;66.82
60820;BME280;46641;48.904;9.126;2023-12-07T04:05:19;99000.19;;;8.64;66.78
60820;BME280;46641;48.904;9.126;2023-12-07T04:10:09;99009.91;;;8.62;66.38
60820;BME280;46641;48.904;9.126;2023-12-07T04:15:00;99007.63;;;8.58;66.94
60820;BME280;46641;48.904;9.126;2023-12-07T04:19:50;99011.09;;;8.58;66.84
60820;BME280;46641;48.904;9.126;2023-12-07T04:24:40;99005.31;;;8.55;66.98
60820;BME280;46641;48.904;9.126;2023-12-07T04:29:31;99008.00;;;8.53;66.67
60820;BME280;46641;48.904;9.126;2023-12-07T04:34:21;99009.78;;;8.53;66.44
60820;BME280;46641;48.904;9.126;2023-12-07T04:39:12;99008.84;;;8.54;66.50
60820;BME280;46641;48.904;9.126;2023-12-07T04:44:02;99020.47;;;8.50;67.14
60820;BME280;46641;48.904;9.126;2023-12-07T04:48:52;99017.88;;;8.50;66.86
60820;BME280;46641;48.904;9.126;2023-12-07T04:53:43;99012.75;;;8.48;66.38
60820;BME280;46641;48.904;9.126;2023-12-07T04:58:33;99018.25;;;8.45;66.89
60820;BME280;46641;48.904;9.126;2023-12-07T05:03:23;99013.13;;;8.43;67.08
60820;BME280;46641;48.904;9.126;2023-12-07T05:08:13;99019.31;;;8.42;66.98
60820;BME280;46641;48.904;9.126;2023-12-07T05:13:04;99021.19;;;8.40;66.96
60820;BME280;46641;48.904;9.126;2023-12-07T05:17:54;99024.00;;;8.37;66.44
60820;BME280;46641;48.904;9.126;2023-12-07T05:22:44;99026.63;;;8.37;66.30
60820;BME280;46641;48.904;9.126;2023-12-07T05:27:35;99029.47;;;8.34;66.45
60820;BME280;46641;48.904;9.126;2023-12-07T05:32:25;99033.03;;;8.33;66.82
60820;BME280;46641;48.904;9.126;2023-12-07T05:37:15;99031.63;;;8.29;66.74
60820;BME280;46641;48.904;9.126;2023-12-07T05:42:06;99027.47;;;8.27;66.70
60820;BME280;46641;48.904;9.126;2023-12-07T05:46:56;99032.69;;;8.27;67.04
60820;BME280;46641;48.904;9.126;2023-12-07T05:51:48;99029.13;;;8.28;66.48
60820;BME280;46641;48.904;9.126;2023-12-07T05:56:41;99032.22;;;8.22;66.82
60820;BME280;46641;48.904;9.126;2023-12-07T06:01:31;99028.78;;;8.21;66.48
60820;BME280;46641;48.904;9.126;2023-12-07T06:06:22;99033.28;;;8.19;67.19
60820;BME280;46641;48.904;9.126;2023-12-07T06:11:12;99033.41;;;8.17;66.79
60820;BME280;46641;48.904;9.126;2023-12-07T06:16:03;99036.13;;;8.16;66.63
60820;BME280;46641;48.904;9.126;2023-12-07T06:20:53;99035.41;;;8.14;66.71
60820;BME280;46641;48.904;9.126;2023-12-07T06:25:43;99026.88;;;8.12;67.14
60820;BME280;46641;48.904;9.126;2023-12-07T06:30:33;99028.91;;;8.08;67.04
60820;BME280;46641;48.904;9.126;2023-12-07T06:35:25;99038.09;;;7.21;63.46
60820;BME280;46641;48.904;9.126;2023-12-07T06:40:15;99040.47;;;7.59;63.97
60820;BME280;46641;48.904;9.126;2023-12-07T06:45:06;99040.38;;;7.72;64.26
60820;BME280;46641;48.904;9.126;2023-12-07T06:50:00;99050.88;;;7.13;64.54
60820;BME280;46641;48.904;9.126;2023-12-07T06:54:53;99050.50;;;7.53;64.60
60820;BME280;46641;48.904;9.126;2023-12-07T06:59:44;99044.25;;;7.66;64.56
60820;BME280;46641;48.904;9.126;2023-12-07T07:04:34;99051.59;;;7.72;64.70
60820;BME280;46641;48.904;9.126;2023-12-07T07:09:24;99040.38;;;7.72;64.82
60820;BME280;46641;48.904;9.126;2023-12-07T07:14:15;99041.19;;;7.72;64.98
60820;BME280;46641;48.904;9.126;2023-12-07T07:19:05;99046.53;;;7.71;65.45
60820;BME280;46641;48.904;9.126;2023-12-07T07:23:56;99034.44;;;7.70;65.31
60820;BME280;46641;48.904;9.126;2023-12-07T07:28:46;99047.47;;;7.70;65.70
60820;BME280;46641;48.904;9.126;2023-12-07T07:33:36;99043.44;;;7.66;65.64
60820;BME280;46641;48.904;9.126;2023-12-07T07:38:27;99047.69;;;7.67;65.62
60820;BME280;46641;48.904;9.126;2023-12-07T07:43:17;99046.84;;;7.66;65.57
60820;BME280;46641;48.904;9.126;2023-12-07T07:48:08;99056.47;;;7.66;65.57
60820;BME280;46641;48.904;9.126;2023-12-07T07:52:58;99061.66;;;7.66;65.68
60820;BME280;46641;48.904;9.126;2023-12-07T07:57:48;99064.28;;;7.66;65.65
60820;BME280;46641;48.904;9.126;2023-12-07T08:02:39;99061.91;;;7.63;66.02
60820;BME280;46641;48.904;9.126;2023-12-07T08:07:29;99070.44;;;7.65;65.87
60820;BME280;46641;48.904;9.126;2023-12-07T08:12:19;99067.09;;;7.63;65.72
60820;BME280;46641;48.904;9.126;2023-12-07T08:17:12;99078.47;;;7.62;66.53
60820;BME280;46641;48.904;9.126;2023-12-07T08:22:03;99064.50;;;7.63;66.39
60820;BME280;46641;48.904;9.126;2023-12-07T08:26:53;99059.28;;;7.63;66.06
60820;BME280;46641;48.904;9.126;2023-12-07T08:31:43;99071.50;;;7.62;66.29
60820;BME280;46641;48.904;9.126;2023-12-07T08:36:34;99067.22;;;7.61;66.17
60820;BME280;46641;48.904;9.126;2023-12-07T08:41:24;99065.44;;;7.62;66.52
60820;BME280;46641;48.904;9.126;2023-12-07T08:46:14;99061.06;;;7.62;66.25
60820;BME280;46641;48.904;9.126;2023-12-07T08:51:05;99051.47;;;7.63;66.40
60820;BME280;46641;48.904;9.126;2023-12-07T08:55:55;99054.09;;;7.63;66.85
60820;BME280;46641;48.904;9.126;2023-12-07T09:00:45;99042.72;;;7.64;66.33
60820;BME280;46641;48.904;9.126;2023-12-07T09:05:36;99043.44;;;7.66;66.85
60820;BME280;46641;48.904;9.126;2023-12-07T09:10:26;99046.84;;;7.66;66.49
60820;BME280;46641;48.904;9.126;2023-12-07T09:15:16;99038.13;;;7.67;66.71
60820;BME280;46641;48.904;9.126;2023-12-07T09:20:08;99029.34;;;7.68;66.35
60820;BME280;46641;48.904;9.126;2023-12-07T09:25:02;99026.22;;;7.06;64.99
60820;BME280;46641;48.904;9.126;2023-12-07T09:29:52;99028.94;;;7.39;64.58
60820;BME280;46641;48.904;9.126;2023-12-07T09:34:43;99022.00;;;7.51;64.93
60820;BME280;46641;48.904;9.126;2023-12-07T09:39:33;99017.25;;;7.56;65.18
60820;BME280;46641;48.904;9.126;2023-12-07T09:44:23;99017.59;;;7.63;65.36
60820;BME280;46641;48.904;9.126;2023-12-07T09:49:14;99026.03;;;7.66;65.06
60820;BME280;46641;48.904;9.126;2023-12-07T09:54:04;99016.44;;;7.67;65.43
60820;BME280;46641;48.904;9.126;2023-12-07T09:58:55;99021.63;;;7.67;65.26
60820;BME280;46641;48.904;9.126;2023-12-07T10:03:45;99004.50;;;7.64;65.75
60820;BME280;46641;48.904;9.126;2023-12-07T10:08:38;99001.66;;;7.67;65.62
60820;BME280;46641;48.904;9.126;2023-12-07T10:13:34;98997.13;;;7.69;65.21
60820;BME280;46641;48.904;9.126;2023-12-07T10:18:25;98986.63;;;7.71;66.28
60820;BME280;46641;48.904;9.126;2023-12-07T10:23:15;98986.38;;;7.74;66.21
60820;BME280;46641;48.904;9.126;2023-12-07T10:28:08;98979.03;;;7.79;66.16
60820;BME280;46641;48.904;9.126;2023-12-07T10:33:04;98967.66;;;7.80;66.15
60820;BME280;46641;48.904;9.126;2023-12-07T10:37:55;98963.16;;;7.82;66.41
60820;BME280;46641;48.904;9.126;2023-12-07T10:42:47;98965.53;;;7.85;65.93
60820;BME280;46641;48.904;9.126;2023-12-07T10:47:38;98952.38;;;7.87;65.76
60820;BME280;46641;48.904;9.126;2023-12-07T10:52:30;98957.47;;;7.88;66.17
60820;BME280;46641;48.904;9.126;2023-12-07T10:57:23;98959.84;;;7.91;66.30
60820;BME280;46641;48.904;9.126;2023-12-07T11:02:13;98953.44;;;7.95;66.48
60820;BME280;46641;48.904;9.126;2023-12-07T11:07:10;98935.78;;;7.99;66.42
60820;BME280;46641;48.904;9.126;2023-12-07T11:12:11;98921.69;;;8.02;65.92
60820;BME280;46641;48.904;9.126;2023-12-07T11:17:04;98905.09;;;8.03;65.73
60820;BME280;46641;48.904;9.126;2023-12-07T11:21:55;98891.81;;;8.06;66.50
60820;BME280;46641;48.904;9.126;2023-12-07T11:26:46;98892.28;;;8.11;66.50
60820;BME280;46641;48.904;9.126;2023-12-07T11:31:36;98882.31;;;8.16;65.79
60820;BME280;46641;48.904;9.126;2023-12-07T11:36:27;98876.72;;;8.20;65.79
60820;BME280;46641;48.904;9.126;2023-12-07T11:41:17;98871.38;;;8.22;65.84
60820;BME280;46641;48.904;9.126;2023-12-07T11:46:07;98857.16;;;8.26;65.19
60820;BME280;46641;48.904;9.126;2023-12-07T11:55:52;98840.56;;;8.38;65.47
60820;BME280;46641;48.904;9.126;2023-12-07T12:00:44;98839.78;;;8.48;65.57
60820;BME280;46641;48.904;9.126;2023-12-07T12:05:37;98823.63;;;8.54;65.37
60820;BME280;46641;48.904;9.126;2023-12-07T12:10:29;98808.03;;;8.63;65.57
60820;BME280;46641;48.904;9.126;2023-12-07T12:15:19;98810.16;;;8.49;60.79
60820;BME280;46641;48.904;9.126;2023-12-07T12:20:10;98801.16;;;8.41;60.83
60820;BME280;46641;48.904;9.126;2023-12-07T12:25:01;98795.19;;;8.51;59.85
60820;BME280;46641;48.904;9.126;2023-12-07T12:29:51;98789.91;;;8.62;61.27
60820;BME280;46641;48.904;9.126;2023-12-07T12:34:41;98784.75;;;8.72;61.26
60820;BME280;46641;48.904;9.126;2023-12-07T12:39:32;98762.91;;;8.73;62.27
60820;BME280;46641;48.904;9.126;2023-12-07T12:44:23;98755.34;;;8.70;62.17
60820;BME280;46641;48.904;9.126;2023-12-07T12:49:13;98753.03;;;8.13;59.61
60820;BME280;46641;48.904;9.126;2023-12-07T12:54:04;98751.66;;;8.51;61.46
60820;BME280;46641;48.904;9.126;2023-12-07T12:58:55;98755.34;;;8.70;61.38
60820;BME280;46641;48.904;9.126;2023-12-07T13:03:46;98752.66;;;8.81;61.66
60820;BME280;46641;48.904;9.126;2023-12-07T13:08:37;98745.25;;;8.86;61.80
60820;BME280;46641;48.904;9.126;2023-12-07T13:13:27;98738.69;;;8.92;62.05
60820;BME280;46641;48.904;9.126;2023-12-07T13:18:17;98740.34;;;8.93;62.48
60820;BME280;46641;48.904;9.126;2023-12-07T13:23:09;98738.44;;;8.95;61.97
60820;BME280;46641;48.904;9.126;2023-12-07T13:27:59;98722.78;;;8.95;62.02
60820;BME280;46641;48.904;9.126;2023-12-07T13:32:50;98732.94;;;8.98;61.94
60820;BME280;46641;48.904;9.126;2023-12-07T13:37:40;98731.00;;;9.00;62.45
60820;BME280;46641;48.904;9.126;2023-12-07T13:42:31;98734.34;;;9.02;62.53
60820;BME280;46641;48.904;9.126;2023-12-07T13:47:21;98735.97;;;9.03;62.25
60820;BME280;46641;48.904;9.126;2023-12-07T13:52:14;98728.97;;;9.03;62.78
60820;BME280;46641;48.904;9.126;2023-12-07T13:57:06;98736.38;;;8.98;62.64
60820;BME280;46641;48.904;9.126;2023-12-07T14:01:57;98732.44;;;9.04;59.83
60820;BME280;46641;48.904;9.126;2023-12-07T14:06:47;98718.66;;;9.02;57.76
60820;BME280;46641;48.904;9.126;2023-12-07T14:11:38;98707.25;;;9.03;57.85
60820;BME280;46641;48.904;9.126;2023-12-07T14:16:29;98710.84;;;9.02;57.63
60820;BME280;46641;48.904;9.126;2023-12-07T14:21:20;98722.09;;;9.02;56.85
60820;BME280;46641;48.904;9.126;2023-12-07T14:26:11;98720.56;;;9.00;57.55
60820;BME280;46641;48.904;9.126;2023-12-07T14:31:01;98709.47;;;8.98;56.42
60820;BME280;46641;48.904;9.126;2023-12-07T14:35:51;98711.81;;;9.01;56.78
60820;BME280;46641;48.904;9.126;2023-12-07T14:40:42;98703.72;;;9.04;57.06
60820;BME280;46641;48.904;9.126;2023-12-07T14:45:32;98695.31;;;9.00;56.30
60820;BME280;46641;48.904;9.126;2023-12-07T14:50:22;98677.88;;;9.01;56.40
60820;BME280;46641;48.904;9.126;2023-12-07T14:55:13;98663.41;;;8.97;56.77
60820;BME280;46641;48.904;9.126;2023-12-07T15:00:03;98670.00;;;8.91;57.43
60820;BME280;46641;48.904;9.126;2023-12-07T15:04:54;98659.94;;;8.86;58.19
60820;BME280;46641;48.904;9.126;2023-12-07T15:09:44;98656.41;;;8.87;58.59
60820;BME280;46641;48.904;9.126;2023-12-07T15:14:38;98657.06;;;8.89;59.50
60820;BME280;46641;48.904;9.126;2023-12-07T15:19:28;98655.19;;;8.92;60.12
60820;BME280;46641;48.904;9.126;2023-12-07T15:24:19;98646.09;;;8.96;59.63
60820;BME280;46641;48.904;9.126;2023-12-07T15:29:10;98634.03;;;8.95;59.71
60820;BME280;46641;48.904;9.126;2023-12-07T15:34:00;98627.97;;;8.94;60.36
60820;BME280;46641;48.904;9.126;2023-12-07T15:38:50;98624.13;;;8.88;60.57
60820;BME280;46641;48.904;9.126;2023-12-07T15:43:41;98615.59;;;8.86;61.01
60820;BME280;46641;48.904;9.126;2023-12-07T15:48:31;98596.66;;;8.84;61.28
60820;BME280;46641;48.904;9.126;2023-12-07T15:53:21;98601.16;;;8.82;61.34
60820;BME280;46641;48.904;9.126;2023-12-07T15:58:12;98604.47;;;8.84;61.52
60820;BME280;46641;48.904;9.126;2023-12-07T16:03:03;98593.34;;;8.82;61.77
60820;BME280;46641;48.904;9.126;2023-12-07T16:07:53;98576.72;;;8.83;62.08
60820;BME280;46641;48.904;9.126;2023-12-07T16:12:44;98571.63;;;8.82;62.10
60820;BME280;46641;48.904;9.126;2023-12-07T16:17:34;98570.00;;;8.81;62.54
60820;BME280;46641;48.904;9.126;2023-12-07T16:22:24;98565.59;;;8.81;62.36
60820;BME280;46641;48.904;9.126;2023-12-07T16:27:15;98563.09;;;8.80;62.46
60820;BME280;46641;48.904;9.126;2023-12-07T16:32:06;98554.47;;;8.79;62.12
60820;BME280;46641;48.904;9.126;2023-12-07T16:36:56;98549.38;;;8.78;62.72
60820;BME280;46641;48.904;9.126;2023-12-07T16:41:46;98546.91;;;8.76;62.08
60820;BME280;46641;48.904;9.126;2023-12-07T16:46:37;98548.84;;;8.74;62.81
60820;BME280;46641;48.904;9.126;2023-12-07T16:51:27;98539.50;;;8.72;62.26
60820;BME280;46641;48.904;9.126;2023-12-07T16:56:18;98551.56;;;8.73;62.17
60820;BME280;46641;48.904;9.126;2023-12-07T17:01:09;98538.66;;;8.71;62.63
60820;BME280;46641;48.904;9.126;2023-12-07T17:05:59;98540.44;;;8.71;62.65
60820;BME280;46641;48.904;9.126;2023-12-07T17:10:49;98534.53;;;8.69;62.51
60820;BME280;46641;48.904;9.126;2023-12-07T17:15:40;98534.66;;;8.67;63.20
60820;BME280;46641;48.904;9.126;2023-12-07T17:20:30;98525.19;;;8.66;63.01
60820;BME280;46641;48.904;9.126;2023-12-07T17:25:20;98522.72;;;8.64;63.06
60820;BME280;46641;48.904;9.126;2023-12-07T17:30:11;98521.06;;;8.63;62.87
60820;BME280;46641;48.904;9.126;2023-12-07T17:35:01;98521.06;;;8.63;62.54
60820;BME280;46641;48.904;9.126;2023-12-07T17:39:51;98506.75;;;8.58;63.26
60820;BME280;46641;48.904;9.126;2023-12-07T17:44:45;98498.00;;;8.59;62.94
60820;BME280;46641;48.904;9.126;2023-12-07T17:49:36;98495.38;;;8.49;59.42
60820;BME280;46641;48.904;9.126;2023-12-07T17:54:26;98494.13;;;8.43;60.04
60820;BME280;46641;48.904;9.126;2023-12-07T17:59:17;98491.94;;;8.39;60.35
60820;BME280;46641;48.904;9.126;2023-12-07T18:04:10;98494.63;;;8.37;60.97
60820;BME280;46641;48.904;9.126;2023-12-07T18:09:01;98481.84;;;8.34;60.40
60820;BME280;46641;48.904;9.126;2023-12-07T18:13:52;98474.28;;;8.31;61.23
60820;BME280;46641;48.904;9.126;2023-12-07T18:18:43;98465.78;;;8.29;60.88
60820;BME280;46641;48.904;9.126;2023-12-07T18:23:33;98465.34;;;8.24;60.71
60820;BME280;46641;48.904;9.126;2023-12-07T18:28:23;98470.72;;;8.23;61.28
60820;BME280;46641;48.904;9.126;2023-12-07T18:33:14;98455.63;;;8.26;60.99
60820;BME280;46641;48.904;9.126;2023-12-07T18:38:04;98455.47;;;8.28;61.88
60820;BME280;46641;48.904;9.126;2023-12-07T18:42:54;98444.38;;;8.26;62.39
60820;BME280;46641;48.904;9.126;2023-12-07T18:47:45;98446.84;;;8.27;61.62
60820;BME280;46641;48.904;9.126;2023-12-07T18:52:36;98448.47;;;8.28;62.63
60820;BME280;46641;48.904;9.126;2023-12-07T18:57:26;98432.03;;;8.28;61.65
60820;BME280;46641;48.904;9.126;2023-12-07T19:02:16;98435.59;;;8.27;62.40
60820;BME280;46641;48.904;9.126;2023-12-07T19:07:07;98441.91;;;8.24;62.50
60820;BME280;46641;48.904;9.126;2023-12-07T19:11:57;98420.50;;;8.20;62.50
60820;BME280;46641;48.904;9.126;2023-12-07T19:16:47;98424.88;;;8.20;62.75
60820;BME280;46641;48.904;9.126;2023-12-07T19:21:37;98425.56;;;8.22;62.62
60820;BME280;46641;48.904;9.126;2023-12-07T19:26:28;98425.56;;;8.22;62.65
60820;BME280;46641;48.904;9.126;2023-12-07T19:31:18;98424.47;;;8.25;63.11
60820;BME280;46641;48.904;9.126;2023-12-07T19:36:10;98422.69;;;8.25;62.98
60820;BME280;46641;48.904;9.126;2023-12-07T19:41:02;98415.81;;;8.24;63.02
60820;BME280;46641;48.904;9.126;2023-12-07T19:45:53;98416.66;;;8.25;62.49
60820;BME280;46641;48.904;9.126;2023-12-07T19:50:43;98416.66;;;8.25;63.23
60820;BME280;46641;48.904;9.126;2023-12-07T19:55:34;98419.25;;;8.25;63.18
60820;BME280;46641;48.904;9.126;2023-12-07T20:00:24;98414.19;;;8.23;63.27
60820;BME280;46641;48.904;9.126;2023-12-07T20:05:14;98382.91;;;8.23;63.03
60820;BME280;46641;48.904;9.126;2023-12-07T20:10:06;98371.66;;;8.23;63.23
60820;BME280;46641;48.904;9.126;2023-12-07T20:14:57;98354.34;;;8.22;63.23
60820;BME280;46641;48.904;9.126;2023-12-07T20:19:48;98345.72;;;8.21;62.99
60820;BME280;46641;48.904;9.126;2023-12-07T20:24:38;98328.69;;;8.17;62.88
60820;BME280;46641;48.904;9.126;2023-12-07T20:29:28;98315.78;;;8.15;63.25
60820;BME280;46641;48.904;9.126;2023-12-07T20:34:19;98311.53;;;8.14;63.57
60820;BME280;46641;48.904;9.126;2023-12-07T20:39:10;98302.22;;;8.12;63.34
60820;BME280;46641;48.904;9.126;2023-12-07T20:44:00;98292.47;;;8.14;63.00
60820;BME280;46641;48.904;9.126;2023-12-07T20:48:50;98287.38;;;8.12;62.96
60820;BME280;46641;48.904;9.126;2023-12-07T20:53:40;98273.69;;;8.10;63.87
60820;BME280;46641;48.904;9.126;2023-12-07T20:58:31;98262.44;;;8.10;63.30
60820;BME280;46641;48.904;9.126;2023-12-07T21:03:22;98273.53;;;8.12;63.24
60820;BME280;46641;48.904;9.126;2023-12-07T21:08:13;98268.19;;;8.13;63.58
60820;BME280;46641;48.904;9.126;2023-12-07T21:13:03;98261.31;;;8.12;63.60
60820;BME280;46641;48.904;9.126;2023-12-07T21:17:53;98262.16;;;8.13;63.28
60820;BME280;46641;48.904;9.126;2023-12-07T21:22:44;98255.28;;;8.12;63.94
60820;BME280;46641;48.904;9.126;2023-12-07T21:27:34;98240.47;;;8.12;63.49
60820;BME280;46641;48.904;9.126;2023-12-07T21:32:25;98254.47;;;8.11;64.12
60820;BME280;46641;48.904;9.126;2023-12-07T21:37:15;98241.44;;;8.11;64.00
60820;BME280;46641;48.904;9.126;2023-12-07T21:42:06;98231.00;;;8.11;63.66
60820;BME280;46641;48.904;9.126;2023-12-07T21:46:56;98227.59;;;8.11;64.08
60820;BME280;46641;48.904;9.126;2023-12-07T21:51:47;98219.63;;;8.12;63.94
60820;BME280;46641;48.904;9.126;2023-12-07T21:56:37;98216.19;;;8.12;64.11
60820;BME280;46641;48.904;9.126;2023-12-07T22:01:28;98194.53;;;8.11;63.84
60820;BME280;46641;48.904;9.126;2023-12-07T22:06:23;98182.31;;;8.12;63.32
60820;BME280;46641;48.904;9.126;2023-12-07T22:11:14;98184.25;;;8.10;64.02
60820;BME280;46641;48.904;9.126;2023-12-07T22:16:04;98186.03;;;8.09;63.98
60820;BME280;46641;48.904;9.126;2023-12-07T22:20:55;98176.28;;;8.11;63.87
60820;BME280;46641;48.904;9.126;2023-12-07T22:25:45;98160.09;;;8.08;64.03
60820;BME280;46641;48.904;9.126;2023-12-07T22:30:35;98158.47;;;8.07;64.10
60820;BME280;46641;48.904;9.126;2023-12-07T22:35:26;98166.94;;;8.09;64.02
60820;BME280;46641;48.904;9.126;2023-12-07T22:40:16;98160.09;;;8.08;64.23
60820;BME280;46641;48.904;9.126;2023-12-07T22:45:07;98147.06;;;8.08;64.13
60820;BME280;46641;48.904;9.126;2023-12-07T22:49:58;98156.53;;;8.09;64.26
60820;BME280;46641;48.904;9.126;2023-12-07T22:54:48;98161.75;;;8.09;64.21
60820;BME280;46641;48.904;9.126;2023-12-07T22:59:38;98146.09;;;8.09;64.46
60820;BME280;46641;48.904;9.126;2023-12-07T23:04:29;98140.88;;;8.09;63.80
60820;BME280;46641;48.904;9.126;2023-12-07T23:09:19;98118.41;;;8.08;64.01
60820;BME280;46641;48.904;9.126;2023-12-07T23:14:09;98101.13;;;8.07;64.15
60820;BME280;46641;48.904;9.126;2023-12-07T23:19:00;98097.84;;;8.05;64.46
60820;BME280;46641;48.904;9.126;2023-12-07T23:23:50;98095.09;;;8.06;64.45
60820;BME280;46641;48.904;9.126;2023-12-07T23:28:41;98089.91;;;8.06;64.52
60820;BME280;46641;48.904;9.126;2023-12-07T23:33:31;98084.69;;;8.06;64.18
60820;BME280;46641;48.904;9.126;2023-12-07T23:38:21;98076.00;;;8.06;64.30
60820;BME280;46641;48.904;9.126;2023-12-07T23:43:12;98062.16;;;8.05;64.54
60820;BME280;46641;48.904;9.126;2023-12-07T23:48:02;98054.50;;;8.04;64.78
60820;BME280;46641;48.904;9.126;2023-12-07T23:52:52;98047.50;;;8.04;64.23
60820;BME280;46641;48.904;9.126;2023-12-07T23:57:43;98057.78;;;8.06;64.15
